logo
Search for airport 
image banner adimage banner adimage banner ad
image banner ad

DAUG - Ghardaia / Noumerat-Moufdi Zakaria

Located in Ghardaia, Algeria

ICAO - DAUG, IATA - GHA

Data provided by Airmate  

General information

Coordinates: N32°22'54" E3°47'58"
Elevation is 1512 feet MSL.
 
Rated:
View ratings:
[VIEW]
View others Airports in Ghardaïa Province

Operational data

Special qualification required
Current time UTC:
Current local time:
Weather
TAF: TAF DAUG 220500Z 2206/2306 06010KT 6000 NSC BECMG 2220/2222 VRB02KT
View NOTAMs / SUP AIP / TFR affecting this airport [VIEW]
Communications frequencies: [VIEW]

Runways:

RWY identifierQFULength (ft)Width (ft)SurfaceLDA (ft)
18183°7874148ASP
367874148ASP
12122°10171197ASP
30302°10171197ASP

Airport contact information

Address: Ghardaia Algeria

Satellite view of DAUG